sensor_id;sensor_type;location;lat;lon;timestamp;P1;durP1;ratioP1;P2;durP2;ratioP2
21822;SDS011;11074;48.596;9.238;2023-07-09T00:02:13;6.93;;;3.83;;
21822;SDS011;11074;48.596;9.238;2023-07-09T00:04:39;6.88;;;4.00;;
21822;SDS011;11074;48.596;9.238;2023-07-09T00:07:11;5.07;;;3.35;;
21822;SDS011;11074;48.596;9.238;2023-07-09T00:09:58;13.32;;;3.80;;
21822;SDS011;11074;48.596;9.238;2023-07-09T00:12:24;4.97;;;3.22;;
21822;SDS011;11074;48.596;9.238;2023-07-09T00:14:51;5.75;;;3.10;;
21822;SDS011;11074;48.596;9.238;2023-07-09T00:17:25;7.25;;;3.55;;
21822;SDS011;11074;48.596;9.238;2023-07-09T00:19:55;6.28;;;3.72;;
21822;SDS011;11074;48.596;9.238;2023-07-09T00:22:22;10.20;;;3.70;;
21822;SDS011;11074;48.596;9.238;2023-07-09T00:24:48;5.53;;;3.47;;
21822;SDS011;11074;48.596;9.238;2023-07-09T00:27:19;5.03;;;3.42;;
21822;SDS011;11074;48.596;9.238;2023-07-09T00:29:47;5.72;;;3.80;;
21822;SDS011;11074;48.596;9.238;2023-07-09T00:32:14;6.95;;;3.92;;
21822;SDS011;11074;48.596;9.238;2023-07-09T00:34:42;6.07;;;3.58;;
21822;SDS011;11074;48.596;9.238;2023-07-09T00:37:13;5.38;;;3.53;;
21822;SDS011;11074;48.596;9.238;2023-07-09T00:39:41;6.68;;;3.50;;
21822;SDS011;11074;48.596;9.238;2023-07-09T00:42:13;8.48;;;3.72;;
21822;SDS011;11074;48.596;9.238;2023-07-09T00:44:44;5.80;;;4.13;;
21822;SDS011;11074;48.596;9.238;2023-07-09T00:47:21;6.15;;;3.72;;
21822;SDS011;11074;48.596;9.238;2023-07-09T00:50:08;7.80;;;3.58;;
21822;SDS011;11074;48.596;9.238;2023-07-09T00:52:50;6.70;;;3.90;;
21822;SDS011;11074;48.596;9.238;2023-07-09T00:55:23;5.88;;;3.85;;
21822;SDS011;11074;48.596;9.238;2023-07-09T00:57:58;6.28;;;3.17;;
21822;SDS011;11074;48.596;9.238;2023-07-09T01:00:37;4.75;;;3.42;;
21822;SDS011;11074;48.596;9.238;2023-07-09T01:03:27;7.50;;;3.10;;
21822;SDS011;11074;48.596;9.238;2023-07-09T01:06:00;5.78;;;3.47;;
21822;SDS011;11074;48.596;9.238;2023-07-09T01:08:27;6.60;;;3.50;;
21822;SDS011;11074;48.596;9.238;2023-07-09T01:10:57;5.80;;;3.92;;
21822;SDS011;11074;48.596;9.238;2023-07-09T01:13:24;5.95;;;3.40;;
21822;SDS011;11074;48.596;9.238;2023-07-09T01:15:52;4.40;;;3.65;;
21822;SDS011;11074;48.596;9.238;2023-07-09T01:18:20;7.32;;;3.88;;
21822;SDS011;11074;48.596;9.238;2023-07-09T01:20:46;6.65;;;3.45;;
21822;SDS011;11074;48.596;9.238;2023-07-09T01:23:13;6.07;;;3.85;;
21822;SDS011;11074;48.596;9.238;2023-07-09T01:25:42;5.97;;;3.65;;
21822;SDS011;11074;48.596;9.238;2023-07-09T01:28:17;6.80;;;3.80;;
21822;SDS011;11074;48.596;9.238;2023-07-09T01:30:43;5.53;;;3.67;;
21822;SDS011;11074;48.596;9.238;2023-07-09T01:33:10;6.00;;;3.55;;
21822;SDS011;11074;48.596;9.238;2023-07-09T01:35:37;6.75;;;3.33;;
21822;SDS011;11074;48.596;9.238;2023-07-09T01:38:07;6.38;;;3.25;;
21822;SDS011;11074;48.596;9.238;2023-07-09T01:40:34;6.40;;;3.83;;
21822;SDS011;11074;48.596;9.238;2023-07-09T01:43:01;7.75;;;3.70;;
21822;SDS011;11074;48.596;9.238;2023-07-09T01:45:33;4.57;;;3.42;;
21822;SDS011;11074;48.596;9.238;2023-07-09T01:48:01;4.97;;;3.28;;
21822;SDS011;11074;48.596;9.238;2023-07-09T01:50:29;6.82;;;3.85;;
21822;SDS011;11074;48.596;9.238;2023-07-09T01:52:54;7.13;;;3.58;;
21822;SDS011;11074;48.596;9.238;2023-07-09T01:55:21;6.10;;;3.60;;
21822;SDS011;11074;48.596;9.238;2023-07-09T01:57:47;6.53;;;3.50;;
21822;SDS011;11074;48.596;9.238;2023-07-09T02:00:16;5.28;;;3.30;;
21822;SDS011;11074;48.596;9.238;2023-07-09T02:02:42;4.80;;;3.30;;
21822;SDS011;11074;48.596;9.238;2023-07-09T02:05:12;6.50;;;3.75;;
21822;SDS011;11074;48.596;9.238;2023-07-09T02:07:41;6.03;;;3.33;;
21822;SDS011;11074;48.596;9.238;2023-07-09T02:10:07;5.57;;;3.42;;
21822;SDS011;11074;48.596;9.238;2023-07-09T02:12:33;4.93;;;3.50;;
21822;SDS011;11074;48.596;9.238;2023-07-09T02:14:59;7.78;;;3.70;;
21822;SDS011;11074;48.596;9.238;2023-07-09T02:17:25;5.68;;;3.40;;
21822;SDS011;11074;48.596;9.238;2023-07-09T02:19:50;7.30;;;3.53;;
21822;SDS011;11074;48.596;9.238;2023-07-09T02:22:16;6.72;;;4.10;;
21822;SDS011;11074;48.596;9.238;2023-07-09T02:24:44;6.45;;;3.45;;
21822;SDS011;11074;48.596;9.238;2023-07-09T02:27:10;5.78;;;3.50;;
21822;SDS011;11074;48.596;9.238;2023-07-09T02:29:41;6.20;;;3.75;;
21822;SDS011;11074;48.596;9.238;2023-07-09T02:32:07;5.65;;;3.47;;
21822;SDS011;11074;48.596;9.238;2023-07-09T02:34:33;5.53;;;3.88;;
21822;SDS011;11074;48.596;9.238;2023-07-09T02:37:00;5.35;;;3.47;;
21822;SDS011;11074;48.596;9.238;2023-07-09T02:39:26;4.90;;;3.40;;
21822;SDS011;11074;48.596;9.238;2023-07-09T02:41:52;7.70;;;4.10;;
21822;SDS011;11074;48.596;9.238;2023-07-09T02:44:18;5.30;;;3.65;;
21822;SDS011;11074;48.596;9.238;2023-07-09T02:46:44;7.70;;;3.75;;
21822;SDS011;11074;48.596;9.238;2023-07-09T02:49:11;6.47;;;3.67;;
21822;SDS011;11074;48.596;9.238;2023-07-09T02:51:38;6.93;;;3.92;;
21822;SDS011;11074;48.596;9.238;2023-07-09T02:54:05;6.97;;;3.90;;
21822;SDS011;11074;48.596;9.238;2023-07-09T02:56:31;6.43;;;3.75;;
21822;SDS011;11074;48.596;9.238;2023-07-09T02:58:58;7.82;;;3.88;;
21822;SDS011;11074;48.596;9.238;2023-07-09T03:01:23;6.70;;;3.85;;
21822;SDS011;11074;48.596;9.238;2023-07-09T03:03:52;6.50;;;3.72;;
21822;SDS011;11074;48.596;9.238;2023-07-09T03:06:23;6.25;;;3.92;;
21822;SDS011;11074;48.596;9.238;2023-07-09T03:08:50;7.03;;;3.85;;
21822;SDS011;11074;48.596;9.238;2023-07-09T03:11:16;6.95;;;3.85;;
21822;SDS011;11074;48.596;9.238;2023-07-09T03:13:43;6.40;;;3.78;;
21822;SDS011;11074;48.596;9.238;2023-07-09T03:16:09;6.47;;;3.67;;
21822;SDS011;11074;48.596;9.238;2023-07-09T03:18:35;6.22;;;4.10;;
21822;SDS011;11074;48.596;9.238;2023-07-09T03:21:01;7.80;;;3.97;;
21822;SDS011;11074;48.596;9.238;2023-07-09T03:23:27;6.75;;;3.67;;
21822;SDS011;11074;48.596;9.238;2023-07-09T03:25:54;6.55;;;3.78;;
21822;SDS011;11074;48.596;9.238;2023-07-09T03:28:20;5.80;;;4.00;;
21822;SDS011;11074;48.596;9.238;2023-07-09T03:30:47;5.10;;;3.60;;
21822;SDS011;11074;48.596;9.238;2023-07-09T03:33:14;6.35;;;3.90;;
21822;SDS011;11074;48.596;9.238;2023-07-09T03:35:42;5.63;;;3.55;;
21822;SDS011;11074;48.596;9.238;2023-07-09T03:38:09;7.18;;;3.90;;
21822;SDS011;11074;48.596;9.238;2023-07-09T03:40:36;6.80;;;3.67;;
21822;SDS011;11074;48.596;9.238;2023-07-09T03:43:03;4.68;;;3.70;;
21822;SDS011;11074;48.596;9.238;2023-07-09T03:45:30;7.32;;;3.47;;
21822;SDS011;11074;48.596;9.238;2023-07-09T03:47:57;6.45;;;3.70;;
21822;SDS011;11074;48.596;9.238;2023-07-09T03:50:22;10.80;;;3.83;;
21822;SDS011;11074;48.596;9.238;2023-07-09T03:52:48;6.35;;;4.22;;
21822;SDS011;11074;48.596;9.238;2023-07-09T03:55:14;7.32;;;3.85;;
21822;SDS011;11074;48.596;9.238;2023-07-09T03:57:40;7.72;;;3.75;;
21822;SDS011;11074;48.596;9.238;2023-07-09T04:00:06;6.22;;;4.05;;
21822;SDS011;11074;48.596;9.238;2023-07-09T04:02:35;6.07;;;3.88;;
21822;SDS011;11074;48.596;9.238;2023-07-09T04:05:03;8.48;;;3.50;;
21822;SDS011;11074;48.596;9.238;2023-07-09T04:07:30;5.70;;;3.72;;
21822;SDS011;11074;48.596;9.238;2023-07-09T04:09:56;5.43;;;3.45;;
21822;SDS011;11074;48.596;9.238;2023-07-09T04:12:21;5.93;;;3.97;;
21822;SDS011;11074;48.596;9.238;2023-07-09T04:14:47;5.80;;;3.58;;
21822;SDS011;11074;48.596;9.238;2023-07-09T04:17:13;6.55;;;4.00;;
21822;SDS011;11074;48.596;9.238;2023-07-09T04:19:38;6.47;;;3.67;;
21822;SDS011;11074;48.596;9.238;2023-07-09T04:22:04;6.20;;;3.70;;
21822;SDS011;11074;48.596;9.238;2023-07-09T04:24:30;4.80;;;3.22;;
21822;SDS011;11074;48.596;9.238;2023-07-09T04:26:58;7.43;;;3.97;;
21822;SDS011;11074;48.596;9.238;2023-07-09T04:29:28;6.35;;;3.92;;
21822;SDS011;11074;48.596;9.238;2023-07-09T04:31:55;6.57;;;3.70;;
21822;SDS011;11074;48.596;9.238;2023-07-09T04:34:21;6.78;;;3.85;;
21822;SDS011;11074;48.596;9.238;2023-07-09T04:36:47;8.30;;;3.75;;
21822;SDS011;11074;48.596;9.238;2023-07-09T04:39:13;8.40;;;4.22;;
21822;SDS011;11074;48.596;9.238;2023-07-09T04:41:40;8.65;;;4.18;;
21822;SDS011;11074;48.596;9.238;2023-07-09T04:44:05;6.72;;;3.92;;
21822;SDS011;11074;48.596;9.238;2023-07-09T04:46:31;9.20;;;4.10;;
21822;SDS011;11074;48.596;9.238;2023-07-09T04:48:57;5.95;;;3.92;;
21822;SDS011;11074;48.596;9.238;2023-07-09T04:51:22;6.28;;;3.65;;
21822;SDS011;11074;48.596;9.238;2023-07-09T04:53:48;7.75;;;3.85;;
21822;SDS011;11074;48.596;9.238;2023-07-09T04:56:16;5.68;;;3.92;;
21822;SDS011;11074;48.596;9.238;2023-07-09T04:58:43;8.55;;;4.18;;
21822;SDS011;11074;48.596;9.238;2023-07-09T05:01:09;6.03;;;3.90;;
21822;SDS011;11074;48.596;9.238;2023-07-09T05:03:34;5.15;;;3.50;;
21822;SDS011;11074;48.596;9.238;2023-07-09T05:06:00;7.00;;;4.07;;
21822;SDS011;11074;48.596;9.238;2023-07-09T05:08:26;7.65;;;4.18;;
21822;SDS011;11074;48.596;9.238;2023-07-09T05:10:51;5.32;;;3.85;;
21822;SDS011;11074;48.596;9.238;2023-07-09T05:13:18;6.10;;;4.10;;
21822;SDS011;11074;48.596;9.238;2023-07-09T05:15:45;5.88;;;4.07;;
21822;SDS011;11074;48.596;9.238;2023-07-09T05:18:12;8.13;;;4.13;;
21822;SDS011;11074;48.596;9.238;2023-07-09T05:20:40;7.68;;;4.60;;
21822;SDS011;11074;48.596;9.238;2023-07-09T05:23:06;6.18;;;4.13;;
21822;SDS011;11074;48.596;9.238;2023-07-09T05:25:33;5.95;;;4.10;;
21822;SDS011;11074;48.596;9.238;2023-07-09T05:27:59;5.95;;;4.10;;
21822;SDS011;11074;48.596;9.238;2023-07-09T05:30:25;7.50;;;4.40;;
21822;SDS011;11074;48.596;9.238;2023-07-09T05:32:51;7.00;;;4.38;;
21822;SDS011;11074;48.596;9.238;2023-07-09T05:35:18;6.43;;;4.28;;
21822;SDS011;11074;48.596;9.238;2023-07-09T05:37:44;5.93;;;4.05;;
21822;SDS011;11074;48.596;9.238;2023-07-09T05:40:10;6.30;;;4.28;;
21822;SDS011;11074;48.596;9.238;2023-07-09T05:42:36;6.55;;;4.18;;
21822;SDS011;11074;48.596;9.238;2023-07-09T05:45:02;7.10;;;4.22;;
21822;SDS011;11074;48.596;9.238;2023-07-09T05:47:28;9.00;;;4.75;;
21822;SDS011;11074;48.596;9.238;2023-07-09T05:49:54;7.80;;;4.63;;
21822;SDS011;11074;48.596;9.238;2023-07-09T05:52:21;6.38;;;4.38;;
21822;SDS011;11074;48.596;9.238;2023-07-09T05:54:49;6.57;;;4.50;;
21822;SDS011;11074;48.596;9.238;2023-07-09T05:57:17;7.63;;;4.35;;
21822;SDS011;11074;48.596;9.238;2023-07-09T05:59:42;7.03;;;4.30;;
21822;SDS011;11074;48.596;9.238;2023-07-09T06:02:12;6.55;;;4.40;;
21822;SDS011;11074;48.596;9.238;2023-07-09T06:04:40;6.93;;;4.60;;
21822;SDS011;11074;48.596;9.238;2023-07-09T06:07:07;7.40;;;4.20;;
21822;SDS011;11074;48.596;9.238;2023-07-09T06:09:34;6.65;;;4.68;;
21822;SDS011;11074;48.596;9.238;2023-07-09T06:12:00;7.22;;;4.47;;
21822;SDS011;11074;48.596;9.238;2023-07-09T06:14:28;10.13;;;4.55;;
21822;SDS011;11074;48.596;9.238;2023-07-09T06:16:56;6.90;;;4.72;;
21822;SDS011;11074;48.596;9.238;2023-07-09T06:19:23;7.43;;;4.90;;
21822;SDS011;11074;48.596;9.238;2023-07-09T06:21:49;9.32;;;4.65;;
21822;SDS011;11074;48.596;9.238;2023-07-09T06:24:15;7.63;;;4.72;;
21822;SDS011;11074;48.596;9.238;2023-07-09T06:26:41;6.78;;;4.25;;
21822;SDS011;11074;48.596;9.238;2023-07-09T06:29:06;7.32;;;4.45;;
21822;SDS011;11074;48.596;9.238;2023-07-09T06:31:32;6.95;;;4.25;;
21822;SDS011;11074;48.596;9.238;2023-07-09T06:33:58;6.82;;;4.28;;
21822;SDS011;11074;48.596;9.238;2023-07-09T06:36:24;7.50;;;4.70;;
21822;SDS011;11074;48.596;9.238;2023-07-09T06:38:49;8.35;;;4.78;;
21822;SDS011;11074;48.596;9.238;2023-07-09T06:41:16;5.65;;;4.10;;
21822;SDS011;11074;48.596;9.238;2023-07-09T06:43:42;5.57;;;4.30;;
21822;SDS011;11074;48.596;9.238;2023-07-09T06:46:09;5.85;;;4.43;;
21822;SDS011;11074;48.596;9.238;2023-07-09T06:48:40;7.70;;;4.50;;
21822;SDS011;11074;48.596;9.238;2023-07-09T06:51:06;6.22;;;4.93;;
21822;SDS011;11074;48.596;9.238;2023-07-09T06:53:32;8.02;;;5.43;;
21822;SDS011;11074;48.596;9.238;2023-07-09T06:55:57;7.85;;;5.28;;
21822;SDS011;11074;48.596;9.238;2023-07-09T06:58:26;7.75;;;4.90;;
21822;SDS011;11074;48.596;9.238;2023-07-09T07:00:56;7.95;;;5.03;;
21822;SDS011;11074;48.596;9.238;2023-07-09T07:03:23;7.70;;;5.15;;
21822;SDS011;11074;48.596;9.238;2023-07-09T07:05:50;8.25;;;4.40;;
21822;SDS011;11074;48.596;9.238;2023-07-09T07:08:21;7.90;;;5.13;;
21822;SDS011;11074;48.596;9.238;2023-07-09T07:10:50;9.10;;;5.18;;
21822;SDS011;11074;48.596;9.238;2023-07-09T07:13:27;6.60;;;4.65;;
21822;SDS011;11074;48.596;9.238;2023-07-09T07:15:54;7.03;;;5.00;;
21822;SDS011;11074;48.596;9.238;2023-07-09T07:18:20;5.80;;;4.30;;
21822;SDS011;11074;48.596;9.238;2023-07-09T07:20:46;8.90;;;4.63;;
21822;SDS011;11074;48.596;9.238;2023-07-09T07:23:11;6.82;;;4.45;;
21822;SDS011;11074;48.596;9.238;2023-07-09T07:25:37;7.20;;;4.38;;
21822;SDS011;11074;48.596;9.238;2023-07-09T07:28:03;7.10;;;4.35;;
21822;SDS011;11074;48.596;9.238;2023-07-09T07:30:29;7.25;;;4.47;;
21822;SDS011;11074;48.596;9.238;2023-07-09T07:32:55;7.35;;;4.72;;
21822;SDS011;11074;48.596;9.238;2023-07-09T07:35:21;8.27;;;4.72;;
21822;SDS011;11074;48.596;9.238;2023-07-09T07:37:46;6.30;;;4.28;;
21822;SDS011;11074;48.596;9.238;2023-07-09T07:40:12;5.60;;;4.40;;
21822;SDS011;11074;48.596;9.238;2023-07-09T07:42:38;8.68;;;4.47;;
21822;SDS011;11074;48.596;9.238;2023-07-09T07:45:04;6.82;;;4.55;;
21822;SDS011;11074;48.596;9.238;2023-07-09T07:47:32;6.55;;;4.90;;
21822;SDS011;11074;48.596;9.238;2023-07-09T07:49:58;7.45;;;4.60;;
21822;SDS011;11074;48.596;9.238;2023-07-09T07:52:24;9.65;;;4.53;;
21822;SDS011;11074;48.596;9.238;2023-07-09T07:54:50;9.40;;;4.75;;
21822;SDS011;11074;48.596;9.238;2023-07-09T07:57:17;8.48;;;4.55;;
21822;SDS011;11074;48.596;9.238;2023-07-09T07:59:43;10.73;;;4.40;;
21822;SDS011;11074;48.596;9.238;2023-07-09T08:02:11;6.13;;;4.40;;
21822;SDS011;11074;48.596;9.238;2023-07-09T08:04:39;6.93;;;4.38;;
21822;SDS011;11074;48.596;9.238;2023-07-09T08:07:09;7.50;;;4.50;;
21822;SDS011;11074;48.596;9.238;2023-07-09T08:09:36;7.88;;;4.35;;
21822;SDS011;11074;48.596;9.238;2023-07-09T08:12:05;8.82;;;4.55;;
21822;SDS011;11074;48.596;9.238;2023-07-09T08:17:02;11.82;;;3.97;;
21822;SDS011;11074;48.596;9.238;2023-07-09T08:19:28;6.70;;;4.38;;
21822;SDS011;11074;48.596;9.238;2023-07-09T08:21:53;7.03;;;4.75;;
21822;SDS011;11074;48.596;9.238;2023-07-09T08:24:19;7.68;;;4.10;;
21822;SDS011;11074;48.596;9.238;2023-07-09T08:26:45;6.43;;;4.50;;
21822;SDS011;11074;48.596;9.238;2023-07-09T08:29:10;8.20;;;4.85;;
21822;SDS011;11074;48.596;9.238;2023-07-09T08:31:36;5.80;;;4.13;;
21822;SDS011;11074;48.596;9.238;2023-07-09T08:34:02;7.00;;;4.22;;
21822;SDS011;11074;48.596;9.238;2023-07-09T08:36:31;5.82;;;3.92;;
21822;SDS011;11074;48.596;9.238;2023-07-09T08:38:56;8.15;;;4.22;;
21822;SDS011;11074;48.596;9.238;2023-07-09T08:41:31;7.28;;;4.00;;
21822;SDS011;11074;48.596;9.238;2023-07-09T08:44:21;5.55;;;4.03;;
21822;SDS011;11074;48.596;9.238;2023-07-09T08:47:20;7.60;;;4.32;;
21822;SDS011;11074;48.596;9.238;2023-07-09T08:50:00;6.07;;;3.70;;
21822;SDS011;11074;48.596;9.238;2023-07-09T08:52:41;5.13;;;3.30;;
21822;SDS011;11074;48.596;9.238;2023-07-09T08:55:20;6.60;;;3.45;;
21822;SDS011;11074;48.596;9.238;2023-07-09T08:57:54;8.85;;;3.80;;
21822;SDS011;11074;48.596;9.238;2023-07-09T09:00:31;6.57;;;3.53;;
21822;SDS011;11074;48.596;9.238;2023-07-09T09:03:04;6.05;;;3.42;;
21822;SDS011;11074;48.596;9.238;2023-07-09T09:05:37;6.43;;;3.42;;
21822;SDS011;11074;48.596;9.238;2023-07-09T09:08:13;4.93;;;3.00;;
21822;SDS011;11074;48.596;9.238;2023-07-09T09:11:00;7.45;;;3.67;;
21822;SDS011;11074;48.596;9.238;2023-07-09T09:13:40;6.82;;;3.42;;
21822;SDS011;11074;48.596;9.238;2023-07-09T09:16:11;5.95;;;3.20;;
21822;SDS011;11074;48.596;9.238;2023-07-09T09:18:46;7.72;;;3.38;;
21822;SDS011;11074;48.596;9.238;2023-07-09T09:21:16;7.10;;;3.75;;
21822;SDS011;11074;48.596;9.238;2023-07-09T09:23:56;7.53;;;3.83;;
21822;SDS011;11074;48.596;9.238;2023-07-09T09:26:28;4.78;;;3.17;;
21822;SDS011;11074;48.596;9.238;2023-07-09T09:28:58;9.07;;;3.63;;
21822;SDS011;11074;48.596;9.238;2023-07-09T09:31:26;6.80;;;3.33;;
21822;SDS011;11074;48.596;9.238;2023-07-09T09:33:54;5.50;;;3.60;;
21822;SDS011;11074;48.596;9.238;2023-07-09T09:36:25;6.43;;;3.00;;
21822;SDS011;11074;48.596;9.238;2023-07-09T09:38:52;5.80;;;3.50;;
21822;SDS011;11074;48.596;9.238;2023-07-09T09:41:20;6.65;;;3.60;;
21822;SDS011;11074;48.596;9.238;2023-07-09T09:43:52;7.25;;;3.50;;
21822;SDS011;11074;48.596;9.238;2023-07-09T09:46:21;6.10;;;3.38;;
21822;SDS011;11074;48.596;9.238;2023-07-09T09:48:53;6.97;;;3.40;;
21822;SDS011;11074;48.596;9.238;2023-07-09T09:51:23;5.72;;;3.13;;
21822;SDS011;11074;48.596;9.238;2023-07-09T09:53:51;7.03;;;3.75;;
21822;SDS011;11074;48.596;9.238;2023-07-09T09:56:27;4.50;;;3.30;;
21822;SDS011;11074;48.596;9.238;2023-07-09T09:58:58;9.32;;;3.15;;
21822;SDS011;11074;48.596;9.238;2023-07-09T10:01:26;6.35;;;3.10;;
21822;SDS011;11074;48.596;9.238;2023-07-09T10:04:01;6.07;;;3.25;;
21822;SDS011;11074;48.596;9.238;2023-07-09T10:06:33;5.00;;;2.90;;
21822;SDS011;11074;48.596;9.238;2023-07-09T10:09:16;4.68;;;2.95;;
21822;SDS011;11074;48.596;9.238;2023-07-09T10:11:58;5.05;;;3.10;;
21822;SDS011;11074;48.596;9.238;2023-07-09T10:15:15;6.45;;;3.35;;
21822;SDS011;11074;48.596;9.238;2023-07-09T10:21:08;5.20;;;3.60;;
21822;SDS011;11074;48.596;9.238;2023-07-09T10:26:51;5.93;;;3.53;;
21822;SDS011;11074;48.596;9.238;2023-07-09T10:35:30;6.10;;;3.53;;
21822;SDS011;11074;48.596;9.238;2023-07-09T10:41:00;7.32;;;3.50;;
21822;SDS011;11074;48.596;9.238;2023-07-09T10:43:36;7.20;;;3.30;;
21822;SDS011;11074;48.596;9.238;2023-07-09T10:46:17;7.55;;;3.67;;
21822;SDS011;11074;48.596;9.238;2023-07-09T10:48:50;7.50;;;3.50;;
21822;SDS011;11074;48.596;9.238;2023-07-09T10:54:24;6.55;;;3.75;;
21822;SDS011;11074;48.596;9.238;2023-07-09T10:57:33;5.43;;;3.53;;
21822;SDS011;11074;48.596;9.238;2023-07-09T11:00:17;7.63;;;4.10;;
21822;SDS011;11074;48.596;9.238;2023-07-09T11:02:48;5.63;;;3.60;;
21822;SDS011;11074;48.596;9.238;2023-07-09T11:05:26;6.38;;;3.83;;
21822;SDS011;11074;48.596;9.238;2023-07-09T11:10:41;6.03;;;3.65;;
21822;SDS011;11074;48.596;9.238;2023-07-09T11:13:21;6.30;;;3.50;;
21822;SDS011;11074;48.596;9.238;2023-07-09T11:15:56;6.32;;;3.80;;
21822;SDS011;11074;48.596;9.238;2023-07-09T11:18:24;5.13;;;3.60;;
21822;SDS011;11074;48.596;9.238;2023-07-09T11:21:06;6.43;;;4.13;;
21822;SDS011;11074;48.596;9.238;2023-07-09T11:23:50;5.55;;;3.40;;
21822;SDS011;11074;48.596;9.238;2023-07-09T11:31:38;6.82;;;3.97;;
21822;SDS011;11074;48.596;9.238;2023-07-09T11:34:10;6.50;;;3.78;;
21822;SDS011;11074;48.596;9.238;2023-07-09T11:36:52;6.45;;;3.92;;
21822;SDS011;11074;48.596;9.238;2023-07-09T11:45:18;5.45;;;3.42;;
21822;SDS011;11074;48.596;9.238;2023-07-09T11:50:29;7.43;;;3.50;;
21822;SDS011;11074;48.596;9.238;2023-07-09T11:53:05;8.07;;;3.67;;
21822;SDS011;11074;48.596;9.238;2023-07-09T11:55:57;7.23;;;3.77;;
21822;SDS011;11074;48.596;9.238;2023-07-09T11:58:23;6.82;;;3.67;;
21822;SDS011;11074;48.596;9.238;2023-07-09T12:00:53;6.18;;;3.58;;
21822;SDS011;11074;48.596;9.238;2023-07-09T12:08:56;4.78;;;3.35;;
21822;SDS011;11074;48.596;9.238;2023-07-09T12:11:27;9.25;;;3.75;;
21822;SDS011;11074;48.596;9.238;2023-07-09T12:14:10;5.00;;;3.22;;
21822;SDS011;11074;48.596;9.238;2023-07-09T12:16:48;5.40;;;3.58;;
21822;SDS011;11074;48.596;9.238;2023-07-09T12:19:22;8.80;;;3.55;;
21822;SDS011;11074;48.596;9.238;2023-07-09T12:21:51;6.30;;;3.40;;
21822;SDS011;11074;48.596;9.238;2023-07-09T12:24:35;7.40;;;3.80;;
21822;SDS011;11074;48.596;9.238;2023-07-09T12:27:22;6.05;;;3.40;;
21822;SDS011;11074;48.596;9.238;2023-07-09T12:29:53;5.65;;;3.70;;
21822;SDS011;11074;48.596;9.238;2023-07-09T12:32:21;7.95;;;3.80;;
21822;SDS011;11074;48.596;9.238;2023-07-09T12:34:51;5.57;;;3.58;;
21822;SDS011;11074;48.596;9.238;2023-07-09T12:37:20;6.32;;;3.92;;
21822;SDS011;11074;48.596;9.238;2023-07-09T12:39:50;6.50;;;3.53;;
21822;SDS011;11074;48.596;9.238;2023-07-09T12:42:23;8.30;;;3.58;;
21822;SDS011;11074;48.596;9.238;2023-07-09T12:44:57;7.97;;;3.55;;
21822;SDS011;11074;48.596;9.238;2023-07-09T12:47:23;6.15;;;3.60;;
21822;SDS011;11074;48.596;9.238;2023-07-09T12:49:50;6.53;;;3.33;;
21822;SDS011;11074;48.596;9.238;2023-07-09T12:52:26;7.18;;;3.60;;
21822;SDS011;11074;48.596;9.238;2023-07-09T12:54:54;5.57;;;3.72;;
21822;SDS011;11074;48.596;9.238;2023-07-09T12:57:26;6.57;;;3.72;;
21822;SDS011;11074;48.596;9.238;2023-07-09T12:59:54;5.78;;;3.40;;
21822;SDS011;11074;48.596;9.238;2023-07-09T13:02:22;5.10;;;3.30;;
21822;SDS011;11074;48.596;9.238;2023-07-09T13:05:04;6.33;;;3.70;;
21822;SDS011;11074;48.596;9.238;2023-07-09T13:07:46;7.40;;;4.00;;
21822;SDS011;11074;48.596;9.238;2023-07-09T13:10:17;6.40;;;3.85;;
21822;SDS011;11074;48.596;9.238;2023-07-09T13:12:52;8.38;;;3.60;;
21822;SDS011;11074;48.596;9.238;2023-07-09T13:18:09;8.13;;;3.50;;
21822;SDS011;11074;48.596;9.238;2023-07-09T13:20:38;5.68;;;3.00;;
21822;SDS011;11074;48.596;9.238;2023-07-09T13:23:11;4.90;;;3.42;;
21822;SDS011;11074;48.596;9.238;2023-07-09T13:25:40;6.57;;;3.20;;
21822;SDS011;11074;48.596;9.238;2023-07-09T13:30:41;8.60;;;3.42;;
21822;SDS011;11074;48.596;9.238;2023-07-09T13:33:08;6.10;;;3.17;;
21822;SDS011;11074;48.596;9.238;2023-07-09T13:35:35;6.43;;;3.20;;
21822;SDS011;11074;48.596;9.238;2023-07-09T13:38:01;6.28;;;3.80;;
21822;SDS011;11074;48.596;9.238;2023-07-09T13:40:29;6.00;;;3.35;;
21822;SDS011;11074;48.596;9.238;2023-07-09T13:42:55;6.40;;;3.03;;
21822;SDS011;11074;48.596;9.238;2023-07-09T13:45:22;5.72;;;3.72;;
21822;SDS011;11074;48.596;9.238;2023-07-09T13:47:51;5.57;;;3.25;;
21822;SDS011;11074;48.596;9.238;2023-07-09T13:50:18;7.00;;;3.40;;
21822;SDS011;11074;48.596;9.238;2023-07-09T13:52:45;5.85;;;3.40;;
21822;SDS011;11074;48.596;9.238;2023-07-09T13:55:16;6.93;;;3.25;;
21822;SDS011;11074;48.596;9.238;2023-07-09T13:57:45;6.22;;;3.00;;
21822;SDS011;11074;48.596;9.238;2023-07-09T14:00:15;5.75;;;2.72;;
21822;SDS011;11074;48.596;9.238;2023-07-09T14:02:42;5.90;;;3.10;;
21822;SDS011;11074;48.596;9.238;2023-07-09T14:05:10;6.15;;;3.03;;
21822;SDS011;11074;48.596;9.238;2023-07-09T14:07:39;5.82;;;3.10;;
21822;SDS011;11074;48.596;9.238;2023-07-09T14:10:09;6.03;;;3.33;;
21822;SDS011;11074;48.596;9.238;2023-07-09T14:12:43;5.85;;;2.97;;
21822;SDS011;11074;48.596;9.238;2023-07-09T14:15:16;5.88;;;3.40;;
21822;SDS011;11074;48.596;9.238;2023-07-09T14:17:44;8.25;;;3.00;;
21822;SDS011;11074;48.596;9.238;2023-07-09T14:20:12;7.72;;;3.10;;
21822;SDS011;11074;48.596;9.238;2023-07-09T14:22:40;5.32;;;3.20;;
21822;SDS011;11074;48.596;9.238;2023-07-09T14:25:28;5.68;;;3.13;;
21822;SDS011;11074;48.596;9.238;2023-07-09T14:27:54;4.00;;;2.55;;
21822;SDS011;11074;48.596;9.238;2023-07-09T14:30:21;5.70;;;3.05;;
21822;SDS011;11074;48.596;9.238;2023-07-09T14:32:49;7.85;;;4.63;;
21822;SDS011;11074;48.596;9.238;2023-07-09T14:35:18;11.70;;;5.88;;
21822;SDS011;11074;48.596;9.238;2023-07-09T14:37:48;8.52;;;4.78;;
21822;SDS011;11074;48.596;9.238;2023-07-09T14:40:17;10.77;;;5.43;;
21822;SDS011;11074;48.596;9.238;2023-07-09T14:42:46;9.02;;;5.10;;
21822;SDS011;11074;48.596;9.238;2023-07-09T14:45:21;6.28;;;3.45;;
21822;SDS011;11074;48.596;9.238;2023-07-09T14:47:49;10.23;;;3.58;;
21822;SDS011;11074;48.596;9.238;2023-07-09T14:50:17;6.00;;;3.38;;
21822;SDS011;11074;48.596;9.238;2023-07-09T14:52:44;7.22;;;3.13;;
21822;SDS011;11074;48.596;9.238;2023-07-09T14:55:13;4.75;;;2.92;;
21822;SDS011;11074;48.596;9.238;2023-07-09T14:57:46;5.30;;;3.05;;
21822;SDS011;11074;48.596;9.238;2023-07-09T15:00:14;6.63;;;3.20;;
21822;SDS011;11074;48.596;9.238;2023-07-09T15:02:45;4.28;;;2.80;;
21822;SDS011;11074;48.596;9.238;2023-07-09T15:05:21;4.72;;;3.08;;
21822;SDS011;11074;48.596;9.238;2023-07-09T15:10:17;4.22;;;2.88;;
21822;SDS011;11074;48.596;9.238;2023-07-09T15:12:51;5.72;;;3.10;;
21822;SDS011;11074;48.596;9.238;2023-07-09T15:15:25;6.85;;;2.97;;
21822;SDS011;11074;48.596;9.238;2023-07-09T15:17:55;4.50;;;2.83;;
21822;SDS011;11074;48.596;9.238;2023-07-09T15:20:24;5.35;;;2.90;;
21822;SDS011;11074;48.596;9.238;2023-07-09T15:22:57;4.18;;;2.45;;
21822;SDS011;11074;48.596;9.238;2023-07-09T15:25:26;6.47;;;2.70;;
21822;SDS011;11074;48.596;9.238;2023-07-09T15:27:55;7.15;;;2.70;;
21822;SDS011;11074;48.596;9.238;2023-07-09T15:30:22;6.60;;;2.70;;
21822;SDS011;11074;48.596;9.238;2023-07-09T15:32:51;7.22;;;2.88;;
21822;SDS011;11074;48.596;9.238;2023-07-09T15:35:26;4.38;;;2.70;;
21822;SDS011;11074;48.596;9.238;2023-07-09T15:37:57;9.57;;;3.17;;
21822;SDS011;11074;48.596;9.238;2023-07-09T15:40:24;3.60;;;2.00;;
21822;SDS011;11074;48.596;9.238;2023-07-09T15:42:58;5.88;;;2.83;;
21822;SDS011;11074;48.596;9.238;2023-07-09T15:45:30;4.93;;;3.20;;
21822;SDS011;11074;48.596;9.238;2023-07-09T15:47:56;5.82;;;3.15;;
21822;SDS011;11074;48.596;9.238;2023-07-09T15:50:23;4.60;;;3.03;;
21822;SDS011;11074;48.596;9.238;2023-07-09T15:52:52;4.75;;;2.80;;
21822;SDS011;11074;48.596;9.238;2023-07-09T15:55:28;3.80;;;2.20;;